sensor_id;sensor_type;location;lat;lon;timestamp;pressure;altitude;pressure_sealevel;temperature;humidity
84501;BME280;74725;44.210;17.906;2023-12-14T00:01:29;68036.88;;;-145.45;100.00
84501;BME280;74725;44.210;17.906;2023-12-14T00:04:53;68036.88;;;-145.45;100.00
84501;BME280;74725;44.210;17.906;2023-12-14T00:08:17;68036.88;;;-145.45;100.00
84501;BME280;74725;44.210;17.906;2023-12-14T00:11:41;68036.88;;;-145.45;100.00
84501;BME280;74725;44.210;17.906;2023-12-14T00:15:06;68036.88;;;-145.45;100.00
84501;BME280;74725;44.210;17.906;2023-12-14T00:18:30;68036.88;;;-145.45;100.00
84501;BME280;74725;44.210;17.906;2023-12-14T00:21:54;68036.88;;;-145.45;100.00
84501;BME280;74725;44.210;17.906;2023-12-14T00:25:19;68036.88;;;-145.45;100.00
84501;BME280;74725;44.210;17.906;2023-12-14T00:28:43;68036.88;;;-145.45;100.00
84501;BME280;74725;44.210;17.906;2023-12-14T00:32:07;68036.88;;;-145.45;100.00
84501;BME280;74725;44.210;17.906;2023-12-14T00:35:31;68036.88;;;-145.45;100.00
84501;BME280;74725;44.210;17.906;2023-12-14T00:38:56;68036.88;;;-145.45;100.00
84501;BME280;74725;44.210;17.906;2023-12-14T00:42:20;68036.88;;;-145.45;100.00
84501;BME280;74725;44.210;17.906;2023-12-14T00:45:45;68036.88;;;-145.45;100.00
84501;BME280;74725;44.210;17.906;2023-12-14T00:49:09;68036.88;;;-145.45;100.00
84501;BME280;74725;44.210;17.906;2023-12-14T00:52:33;68036.88;;;-145.45;100.00
84501;BME280;74725;44.210;17.906;2023-12-14T00:55:58;68036.88;;;-145.45;100.00
84501;BME280;74725;44.210;17.906;2023-12-14T00:59:22;68036.88;;;-145.45;100.00
84501;BME280;74725;44.210;17.906;2023-12-14T01:02:46;68036.88;;;-145.45;100.00
84501;BME280;74725;44.210;17.906;2023-12-14T01:06:10;68036.88;;;-145.45;100.00
84501;BME280;74725;44.210;17.906;2023-12-14T01:09:34;68036.88;;;-145.45;100.00
84501;BME280;74725;44.210;17.906;2023-12-14T01:12:59;68036.88;;;-145.45;100.00
84501;BME280;74725;44.210;17.906;2023-12-14T01:16:25;68036.88;;;-145.45;100.00
84501;BME280;74725;44.210;17.906;2023-12-14T01:19:49;68036.88;;;-145.45;100.00
84501;BME280;74725;44.210;17.906;2023-12-14T01:23:13;68036.88;;;-145.45;100.00
84501;BME280;74725;44.210;17.906;2023-12-14T01:26:38;68036.88;;;-145.45;100.00
84501;BME280;74725;44.210;17.906;2023-12-14T01:30:02;68036.88;;;-145.45;100.00
84501;BME280;74725;44.210;17.906;2023-12-14T01:33:28;68036.88;;;-145.45;100.00
84501;BME280;74725;44.210;17.906;2023-12-14T01:36:52;68036.88;;;-145.45;100.00
84501;BME280;74725;44.210;17.906;2023-12-14T01:40:18;68036.88;;;-145.45;100.00
84501;BME280;74725;44.210;17.906;2023-12-14T01:43:42;68036.88;;;-145.45;100.00
84501;BME280;74725;44.210;17.906;2023-12-14T01:47:07;68036.88;;;-145.45;100.00
84501;BME280;74725;44.210;17.906;2023-12-14T01:50:31;68036.88;;;-145.45;100.00
84501;BME280;74725;44.210;17.906;2023-12-14T01:53:55;68036.88;;;-145.45;100.00
84501;BME280;74725;44.210;17.906;2023-12-14T01:57:19;68036.88;;;-145.45;100.00
84501;BME280;74725;44.210;17.906;2023-12-14T02:04:26;68036.88;;;-145.45;100.00
84501;BME280;74725;44.210;17.906;2023-12-14T02:07:50;68036.88;;;-145.45;100.00
84501;BME280;74725;44.210;17.906;2023-12-14T02:11:15;68036.88;;;-145.45;100.00
84501;BME280;74725;44.210;17.906;2023-12-14T02:14:39;68036.88;;;-145.45;100.00
84501;BME280;74725;44.210;17.906;2023-12-14T02:18:05;68036.88;;;-145.45;100.00
84501;BME280;74725;44.210;17.906;2023-12-14T02:21:30;68036.88;;;-145.45;100.00
84501;BME280;74725;44.210;17.906;2023-12-14T02:24:54;68036.88;;;-145.45;100.00
84501;BME280;74725;44.210;17.906;2023-12-14T02:28:18;68036.88;;;-145.45;100.00
84501;BME280;74725;44.210;17.906;2023-12-14T02:31:42;68036.88;;;-145.45;100.00
84501;BME280;74725;44.210;17.906;2023-12-14T02:35:06;68036.88;;;-145.45;100.00
84501;BME280;74725;44.210;17.906;2023-12-14T02:38:31;68036.88;;;-145.45;100.00
84501;BME280;74725;44.210;17.906;2023-12-14T02:41:56;68036.88;;;-145.45;100.00
84501;BME280;74725;44.210;17.906;2023-12-14T02:45:20;68036.88;;;-145.45;100.00
84501;BME280;74725;44.210;17.906;2023-12-14T02:48:44;68036.88;;;-145.45;100.00
84501;BME280;74725;44.210;17.906;2023-12-14T02:52:12;68036.88;;;-145.45;100.00
84501;BME280;74725;44.210;17.906;2023-12-14T02:55:37;68036.88;;;-145.45;100.00
84501;BME280;74725;44.210;17.906;2023-12-14T02:59:01;68036.88;;;-145.45;100.00
84501;BME280;74725;44.210;17.906;2023-12-14T03:02:25;68036.88;;;-145.45;100.00
84501;BME280;74725;44.210;17.906;2023-12-14T03:05:49;68036.88;;;-145.45;100.00
84501;BME280;74725;44.210;17.906;2023-12-14T03:09:13;68036.88;;;-145.45;100.00
84501;BME280;74725;44.210;17.906;2023-12-14T03:12:38;68036.88;;;-145.45;100.00
84501;BME280;74725;44.210;17.906;2023-12-14T03:16:02;68036.88;;;-145.45;100.00
84501;BME280;74725;44.210;17.906;2023-12-14T03:19:27;68036.88;;;-145.45;100.00
84501;BME280;74725;44.210;17.906;2023-12-14T03:22:51;68036.88;;;-145.45;100.00
84501;BME280;74725;44.210;17.906;2023-12-14T03:26:15;68036.88;;;-145.45;100.00
84501;BME280;74725;44.210;17.906;2023-12-14T03:29:39;68036.88;;;-145.45;100.00
84501;BME280;74725;44.210;17.906;2023-12-14T03:33:03;68036.88;;;-145.45;100.00
84501;BME280;74725;44.210;17.906;2023-12-14T03:36:30;68036.88;;;-145.45;100.00
84501;BME280;74725;44.210;17.906;2023-12-14T03:39:55;68036.88;;;-145.45;100.00
84501;BME280;74725;44.210;17.906;2023-12-14T03:43:19;68036.88;;;-145.45;100.00
84501;BME280;74725;44.210;17.906;2023-12-14T03:46:43;68036.88;;;-145.45;100.00
84501;BME280;74725;44.210;17.906;2023-12-14T03:50:10;68036.88;;;-145.45;100.00
84501;BME280;74725;44.210;17.906;2023-12-14T03:53:34;68036.88;;;-145.45;100.00
84501;BME280;74725;44.210;17.906;2023-12-14T03:56:59;68036.88;;;-145.45;100.00
84501;BME280;74725;44.210;17.906;2023-12-14T03:59:30;96672.88;;;10.37;86.24
84501;BME280;74725;44.210;17.906;2023-12-14T04:01:57;96876.16;;;9.57;86.87
84501;BME280;74725;44.210;17.906;2023-12-14T04:04:23;96861.41;;;9.54;87.33
84501;BME280;74725;44.210;17.906;2023-12-14T04:06:49;96867.75;;;9.51;86.97
84501;BME280;74725;44.210;17.906;2023-12-14T04:09:16;96871.44;;;9.58;87.30
84501;BME280;74725;44.210;17.906;2023-12-14T04:11:42;96867.97;;;9.57;86.32
84501;BME280;74725;44.210;17.906;2023-12-14T04:14:08;96886.88;;;9.51;85.22
84501;BME280;74725;44.210;17.906;2023-12-14T04:16:35;96883.41;;;9.29;83.37
84501;BME280;74725;44.210;17.906;2023-12-14T04:19:00;96879.78;;;9.32;85.10
84501;BME280;74725;44.210;17.906;2023-12-14T04:21:26;96882.16;;;9.43;85.26
84501;BME280;74725;44.210;17.906;2023-12-14T04:23:52;96884.00;;;9.46;85.20
84501;BME280;74725;44.210;17.906;2023-12-14T04:26:18;96906.56;;;9.37;83.53
84501;BME280;74725;44.210;17.906;2023-12-14T04:28:43;96912.84;;;9.25;83.98
84501;BME280;74725;44.210;17.906;2023-12-14T04:31:11;96932.59;;;9.07;82.59
84501;BME280;74725;44.210;17.906;2023-12-14T04:33:37;96919.38;;;9.05;83.37
84501;BME280;74725;44.210;17.906;2023-12-14T04:36:03;96915.00;;;9.08;83.45
84501;BME280;74725;44.210;17.906;2023-12-14T04:38:28;96932.78;;;9.13;83.58
84501;BME280;74725;44.210;17.906;2023-12-14T04:40:54;96940.47;;;9.27;84.37
84501;BME280;74725;44.210;17.906;2023-12-14T04:43:20;96943.50;;;9.29;84.50
84501;BME280;74725;44.210;17.906;2023-12-14T04:45:45;96938.38;;;9.31;84.29
84501;BME280;74725;44.210;17.906;2023-12-14T04:48:13;96945.69;;;9.34;84.46
84501;BME280;74725;44.210;17.906;2023-12-14T04:50:39;96943.59;;;9.38;85.67
84501;BME280;74725;44.210;17.906;2023-12-14T04:53:05;96940.47;;;9.27;83.88
84501;BME280;74725;44.210;17.906;2023-12-14T04:55:30;96961.19;;;9.15;83.66
84501;BME280;74725;44.210;17.906;2023-12-14T04:57:56;96960.44;;;9.02;82.86
84501;BME280;74725;44.210;17.906;2023-12-14T05:00:22;96954.47;;;8.94;83.92
84501;BME280;74725;44.210;17.906;2023-12-14T05:02:47;96963.03;;;8.84;84.04
84501;BME280;74725;44.210;17.906;2023-12-14T05:05:14;96962.69;;;8.81;84.68
84501;BME280;74725;44.210;17.906;2023-12-14T05:07:40;96979.84;;;8.82;85.28
84501;BME280;74725;44.210;17.906;2023-12-14T05:10:06;96973.53;;;8.72;84.39
84501;BME280;74725;44.210;17.906;2023-12-14T05:12:31;96966.34;;;8.66;84.23
84501;BME280;74725;44.210;17.906;2023-12-14T05:14:57;96978.34;;;8.68;84.81
84501;BME280;74725;44.210;17.906;2023-12-14T05:17:23;96982.72;;;8.66;84.03
84501;BME280;74725;44.210;17.906;2023-12-14T05:19:48;96968.31;;;8.65;84.38
84501;BME280;74725;44.210;17.906;2023-12-14T05:22:15;96973.75;;;8.65;84.15
84501;BME280;74725;44.210;17.906;2023-12-14T05:24:40;96979.97;;;8.66;84.07
84501;BME280;74725;44.210;17.906;2023-12-14T05:27:06;96995.72;;;8.62;83.76
84501;BME280;74725;44.210;17.906;2023-12-14T05:29:32;96997.13;;;8.66;84.53
84501;BME280;74725;44.210;17.906;2023-12-14T05:31:58;97003.66;;;8.69;84.94
84501;BME280;74725;44.210;17.906;2023-12-14T05:34:24;97008.03;;;8.66;84.54
84501;BME280;74725;44.210;17.906;2023-12-14T05:36:50;96994.72;;;8.55;83.42
84501;BME280;74725;44.210;17.906;2023-12-14T05:39:15;97007.41;;;8.49;83.28
84501;BME280;74725;44.210;17.906;2023-12-14T05:41:41;97016.34;;;8.50;84.05
84501;BME280;74725;44.210;17.906;2023-12-14T05:44:07;97016.16;;;8.44;83.86
84501;BME280;74725;44.210;17.906;2023-12-14T05:46:33;97016.81;;;8.48;84.47
84501;BME280;74725;44.210;17.906;2023-12-14T05:48:58;97010.56;;;8.48;84.36
84501;BME280;74725;44.210;17.906;2023-12-14T05:51:31;97023.00;;;8.49;84.81
84501;BME280;74725;44.210;17.906;2023-12-14T05:53:57;97015.59;;;8.49;84.82
84501;BME280;74725;44.210;17.906;2023-12-14T05:56:24;97037.53;;;8.46;84.21
84501;BME280;74725;44.210;17.906;2023-12-14T05:58:49;97026.72;;;8.42;84.34
84501;BME280;74725;44.210;17.906;2023-12-14T06:01:18;97015.50;;;8.40;84.59
84501;BME280;74725;44.210;17.906;2023-12-14T06:03:44;97015.81;;;8.42;84.56
84501;BME280;74725;44.210;17.906;2023-12-14T06:06:11;97036.88;;;8.42;84.02
84501;BME280;74725;44.210;17.906;2023-12-14T06:08:38;97048.53;;;8.42;84.25
84501;BME280;74725;44.210;17.906;2023-12-14T06:11:04;97047.03;;;8.41;84.41
84501;BME280;74725;44.210;17.906;2023-12-14T06:13:32;97043.94;;;8.39;84.61
84501;BME280;74725;44.210;17.906;2023-12-14T06:15:58;97040.53;;;8.35;84.29
84501;BME280;74725;44.210;17.906;2023-12-14T06:18:24;97027.13;;;8.28;83.76
84501;BME280;74725;44.210;17.906;2023-12-14T06:20:49;97027.66;;;8.23;83.76
84501;BME280;74725;44.210;17.906;2023-12-14T06:23:15;97040.19;;;8.20;84.06
84501;BME280;74725;44.210;17.906;2023-12-14T06:25:41;97049.13;;;8.21;84.52
84501;BME280;74725;44.210;17.906;2023-12-14T06:28:07;97058.41;;;8.23;84.58
84501;BME280;74725;44.210;17.906;2023-12-14T06:30:33;97050.47;;;8.29;84.76
84501;BME280;74725;44.210;17.906;2023-12-14T06:32:59;97062.94;;;8.43;84.97
84501;BME280;74725;44.210;17.906;2023-12-14T06:35:25;97061.31;;;8.45;84.11
84501;BME280;74725;44.210;17.906;2023-12-14T06:37:51;97074.31;;;8.41;83.37
84501;BME280;74725;44.210;17.906;2023-12-14T06:40:33;97070.91;;;8.37;83.37
84501;BME280;74725;44.210;17.906;2023-12-14T06:43:10;97079.94;;;8.34;83.67
84501;BME280;74725;44.210;17.906;2023-12-14T06:45:37;97087.34;;;8.33;83.84
84501;BME280;74725;44.210;17.906;2023-12-14T06:48:21;97082.75;;;8.30;84.00
84501;BME280;74725;44.210;17.906;2023-12-14T06:50:53;97089.19;;;8.24;83.43
84501;BME280;74725;44.210;17.906;2023-12-14T06:53:27;97092.00;;;8.20;83.50
84501;BME280;74725;44.210;17.906;2023-12-14T06:55:55;97085.78;;;8.20;83.66
84501;BME280;74725;44.210;17.906;2023-12-14T06:58:21;97081.19;;;8.17;83.55
84501;BME280;74725;44.210;17.906;2023-12-14T07:00:49;97088.09;;;8.21;83.98
84501;BME280;74725;44.210;17.906;2023-12-14T07:03:15;97085.38;;;8.21;84.11
84501;BME280;74725;44.210;17.906;2023-12-14T07:05:43;97093.03;;;8.26;84.31
84501;BME280;74725;44.210;17.906;2023-12-14T07:08:12;97110.59;;;8.25;83.93
84501;BME280;74725;44.210;17.906;2023-12-14T07:10:41;97128.22;;;8.21;83.45
84501;BME280;74725;44.210;17.906;2023-12-14T07:13:07;97120.72;;;8.25;83.75
84501;BME280;74725;44.210;17.906;2023-12-14T07:15:37;97122.16;;;8.29;83.88
84501;BME280;74725;44.210;17.906;2023-12-14T07:18:03;97121.88;;;8.40;84.57
84501;BME280;74725;44.210;17.906;2023-12-14T07:20:30;97121.56;;;8.51;83.87
84501;BME280;74725;44.210;17.906;2023-12-14T07:23:01;97132.72;;;8.56;83.75
84501;BME280;74725;44.210;17.906;2023-12-14T07:25:33;97134.13;;;8.61;83.28
84501;BME280;74725;44.210;17.906;2023-12-14T07:28:04;97135.53;;;8.66;83.03
84501;BME280;74725;44.210;17.906;2023-12-14T07:30:30;97141.75;;;8.66;82.88
84501;BME280;74725;44.210;17.906;2023-12-14T07:32:55;97155.19;;;8.61;82.35
84501;BME280;74725;44.210;17.906;2023-12-14T07:35:24;97149.06;;;8.56;82.29
84501;BME280;74725;44.210;17.906;2023-12-14T07:37:51;97157.47;;;8.62;82.69
84501;BME280;74725;44.210;17.906;2023-12-14T07:40:17;97160.22;;;8.62;82.06
84501;BME280;74725;44.210;17.906;2023-12-14T07:42:43;97164.34;;;8.67;82.76
84501;BME280;74725;44.210;17.906;2023-12-14T07:45:09;97164.91;;;8.74;82.13
84501;BME280;74725;44.210;17.906;2023-12-14T07:47:44;97153.69;;;8.85;82.21
84501;BME280;74725;44.210;17.906;2023-12-14T07:50:12;97156.84;;;8.96;81.73
84501;BME280;74725;44.210;17.906;2023-12-14T07:52:39;97180.00;;;9.04;80.53
84501;BME280;74725;44.210;17.906;2023-12-14T07:55:12;97184.50;;;9.11;80.66
84501;BME280;74725;44.210;17.906;2023-12-14T07:57:41;97190.59;;;9.15;80.11
84501;BME280;74725;44.210;17.906;2023-12-14T08:00:08;97189.75;;;9.18;79.68
84501;BME280;74725;44.210;17.906;2023-12-14T08:02:34;97192.88;;;9.17;79.32
84501;BME280;74725;44.210;17.906;2023-12-14T08:05:00;97191.91;;;9.23;78.93
84501;BME280;74725;44.210;17.906;2023-12-14T08:07:26;97194.75;;;9.32;79.13
84501;BME280;74725;44.210;17.906;2023-12-14T08:09:55;97200.84;;;9.37;78.85
84501;BME280;74725;44.210;17.906;2023-12-14T08:12:22;97207.09;;;9.37;77.97
84501;BME280;74725;44.210;17.906;2023-12-14T08:14:55;97208.19;;;9.52;77.73
84501;BME280;74725;44.210;17.906;2023-12-14T08:17:21;97204.44;;;9.72;77.78
84501;BME280;74725;44.210;17.906;2023-12-14T08:19:47;97209.53;;;9.83;76.91
84501;BME280;74725;44.210;17.906;2023-12-14T08:22:13;97211.66;;;10.00;77.35
84501;BME280;74725;44.210;17.906;2023-12-14T08:24:41;97219.94;;;10.10;76.29
84501;BME280;74725;44.210;17.906;2023-12-14T08:27:07;97227.78;;;10.20;75.37
84501;BME280;74725;44.210;17.906;2023-12-14T08:29:36;97232.72;;;10.25;75.70
84501;BME280;74725;44.210;17.906;2023-12-14T08:32:02;97226.47;;;10.25;75.42
84501;BME280;74725;44.210;17.906;2023-12-14T08:34:30;97238.28;;;10.35;74.72
84501;BME280;74725;44.210;17.906;2023-12-14T08:36:57;97216.81;;;10.33;74.87
84501;BME280;74725;44.210;17.906;2023-12-14T08:39:23;97235.22;;;10.33;75.10
84501;BME280;74725;44.210;17.906;2023-12-14T08:41:49;97220.53;;;10.39;75.37
84501;BME280;74725;44.210;17.906;2023-12-14T08:44:15;97230.47;;;10.46;75.20
84501;BME280;74725;44.210;17.906;2023-12-14T08:46:42;97228.34;;;10.50;75.56
84501;BME280;74725;44.210;17.906;2023-12-14T08:49:14;97240.63;;;10.67;75.14
84501;BME280;74725;44.210;17.906;2023-12-14T08:51:52;97233.16;;;10.90;75.47
84501;BME280;74725;44.210;17.906;2023-12-14T08:54:18;97244.09;;;11.12;74.89
84501;BME280;74725;44.210;17.906;2023-12-14T08:56:44;97254.06;;;11.27;74.14
84501;BME280;74725;44.210;17.906;2023-12-14T08:59:09;97256.72;;;11.49;74.76
84501;BME280;74725;44.210;17.906;2023-12-14T09:01:35;97255.69;;;11.65;73.20
84501;BME280;74725;44.210;17.906;2023-12-14T09:04:00;97255.28;;;11.76;73.98
84501;BME280;74725;44.210;17.906;2023-12-14T09:06:26;97246.47;;;11.81;73.26
84501;BME280;74725;44.210;17.906;2023-12-14T09:08:52;97253.78;;;11.84;72.17
84501;BME280;74725;44.210;17.906;2023-12-14T09:11:19;97266.00;;;11.92;71.88
84501;BME280;74725;44.210;17.906;2023-12-14T09:13:44;97267.09;;;11.95;70.93
84501;BME280;74725;44.210;17.906;2023-12-14T09:16:10;97264.19;;;11.98;71.30
84501;BME280;74725;44.210;17.906;2023-12-14T09:18:38;97278.38;;;11.97;71.16
84501;BME280;74725;44.210;17.906;2023-12-14T09:21:04;97272.91;;;12.06;70.84
84501;BME280;74725;44.210;17.906;2023-12-14T09:23:30;97276.56;;;12.03;70.41
84501;BME280;74725;44.210;17.906;2023-12-14T09:25:56;97278.53;;;12.03;70.58
84501;BME280;74725;44.210;17.906;2023-12-14T09:28:31;97271.38;;;12.14;70.36
84501;BME280;74725;44.210;17.906;2023-12-14T09:30:58;97269.44;;;12.24;69.53
84501;BME280;74725;44.210;17.906;2023-12-14T09:33:23;97263.31;;;12.38;69.41
84501;BME280;74725;44.210;17.906;2023-12-14T09:35:51;97266.38;;;12.49;68.77
84501;BME280;74725;44.210;17.906;2023-12-14T09:38:17;97267.72;;;12.54;68.29
84501;BME280;74725;44.210;17.906;2023-12-14T09:40:44;97266.22;;;12.71;68.15
84501;BME280;74725;44.210;17.906;2023-12-14T09:43:10;97278.88;;;12.78;67.16
84501;BME280;74725;44.210;17.906;2023-12-14T09:45:40;97274.75;;;12.83;66.29
84501;BME280;74725;44.210;17.906;2023-12-14T09:48:10;97271.41;;;12.79;66.70
84501;BME280;74725;44.210;17.906;2023-12-14T09:50:39;97275.78;;;12.85;66.94
84501;BME280;74725;44.210;17.906;2023-12-14T09:53:05;97272.59;;;12.87;66.40
84501;BME280;74725;44.210;17.906;2023-12-14T09:55:33;97265.25;;;13.02;66.80
84501;BME280;74725;44.210;17.906;2023-12-14T09:57:59;97269.97;;;13.11;66.86
84501;BME280;74725;44.210;17.906;2023-12-14T10:00:44;97274.22;;;13.12;64.69
84501;BME280;74725;44.210;17.906;2023-12-14T10:03:21;97268.56;;;13.15;65.37
84501;BME280;74725;44.210;17.906;2023-12-14T10:05:47;97272.22;;;13.12;64.61
84501;BME280;74725;44.210;17.906;2023-12-14T10:08:15;97277.13;;;13.08;65.98
84501;BME280;74725;44.210;17.906;2023-12-14T10:10:42;97270.44;;;13.00;64.62
84501;BME280;74725;44.210;17.906;2023-12-14T10:13:09;97271.81;;;12.95;65.35
84501;BME280;74725;44.210;17.906;2023-12-14T10:15:42;97277.47;;;12.92;64.46
84501;BME280;74725;44.210;17.906;2023-12-14T10:18:08;97273.78;;;13.04;64.84
84501;BME280;74725;44.210;17.906;2023-12-14T10:20:35;97277.19;;;12.90;65.11
84501;BME280;74725;44.210;17.906;2023-12-14T10:23:05;97281.00;;;12.83;64.74
84501;BME280;74725;44.210;17.906;2023-12-14T10:25:31;97280.09;;;12.77;64.72
84501;BME280;74725;44.210;17.906;2023-12-14T10:27:57;97291.84;;;12.50;65.31
84501;BME280;74725;44.210;17.906;2023-12-14T10:30:25;97290.47;;;12.45;66.33
84501;BME280;74725;44.210;17.906;2023-12-14T10:32:55;97290.78;;;12.38;64.02
84501;BME280;74725;44.210;17.906;2023-12-14T10:35:25;97288.03;;;12.20;65.31
84501;BME280;74725;44.210;17.906;2023-12-14T10:37:53;97294.88;;;12.24;65.76
84501;BME280;74725;44.210;17.906;2023-12-14T10:40:23;97293.84;;;12.40;65.21
84501;BME280;74725;44.210;17.906;2023-12-14T10:42:52;97305.13;;;12.33;64.10
84501;BME280;74725;44.210;17.906;2023-12-14T10:45:22;97293.38;;;12.60;65.65
84501;BME280;74725;44.210;17.906;2023-12-14T10:47:51;97309.38;;;12.25;62.53
84501;BME280;74725;44.210;17.906;2023-12-14T10:50:17;97306.34;;;12.32;62.95
84501;BME280;74725;44.210;17.906;2023-12-14T10:52:44;97304.19;;;12.27;63.44
84501;BME280;74725;44.210;17.906;2023-12-14T10:55:18;97295.66;;;12.43;63.66
84501;BME280;74725;44.210;17.906;2023-12-14T10:57:46;97287.13;;;12.41;62.84
84501;BME280;74725;44.210;17.906;2023-12-14T11:00:12;97299.34;;;12.59;63.67
84501;BME280;74725;44.210;17.906;2023-12-14T11:02:41;97309.25;;;12.47;62.11
84501;BME280;74725;44.210;17.906;2023-12-14T11:05:15;97303.22;;;12.03;63.76
84501;BME280;74725;44.210;17.906;2023-12-14T11:07:50;97303.84;;;12.07;64.55
84501;BME280;74725;44.210;17.906;2023-12-14T11:10:23;97306.69;;;11.85;65.04
84501;BME280;74725;44.210;17.906;2023-12-14T11:13:08;97303.75;;;11.79;65.85
84501;BME280;74725;44.210;17.906;2023-12-14T11:15:39;97299.88;;;11.58;67.06
84501;BME280;74725;44.210;17.906;2023-12-14T11:18:25;97307.25;;;11.39;67.93
84501;BME280;74725;44.210;17.906;2023-12-14T11:20:57;97307.66;;;11.29;67.93
84501;BME280;74725;44.210;17.906;2023-12-14T11:26:04;97315.25;;;11.24;69.78
84501;BME280;74725;44.210;17.906;2023-12-14T11:28:31;97309.91;;;11.21;70.58
84501;BME280;74725;44.210;17.906;2023-12-14T11:30:57;97320.34;;;11.13;70.79
84501;BME280;74725;44.210;17.906;2023-12-14T11:33:34;97323.13;;;11.22;72.54
84501;BME280;74725;44.210;17.906;2023-12-14T11:36:02;97317.78;;;11.19;72.31
84501;BME280;74725;44.210;17.906;2023-12-14T11:38:29;97327.94;;;11.09;71.32
84501;BME280;74725;44.210;17.906;2023-12-14T11:40:55;97326.66;;;11.01;72.52
84501;BME280;74725;44.210;17.906;2023-12-14T11:43:21;97321.34;;;11.29;73.31
84501;BME280;74725;44.210;17.906;2023-12-14T11:45:48;97325.94;;;11.32;71.92
84501;BME280;74725;44.210;17.906;2023-12-14T11:48:15;97329.44;;;11.32;70.87
84501;BME280;74725;44.210;17.906;2023-12-14T11:50:41;97327.81;;;11.44;70.92
84501;BME280;74725;44.210;17.906;2023-12-14T11:53:08;97332.41;;;11.47;70.68
84501;BME280;74725;44.210;17.906;2023-12-14T11:55:36;97336.44;;;11.33;70.74
84501;BME280;74725;44.210;17.906;2023-12-14T11:58:17;97338.25;;;11.27;69.81
84501;BME280;74725;44.210;17.906;2023-12-14T12:00:43;97342.22;;;11.04;70.68
84501;BME280;74725;44.210;17.906;2023-12-14T12:03:19;97341.13;;;11.01;70.89
84501;BME280;74725;44.210;17.906;2023-12-14T12:05:51;97348.38;;;10.73;71.37
84501;BME280;74725;44.210;17.906;2023-12-14T12:08:19;97351.66;;;10.46;70.77
84501;BME280;74725;44.210;17.906;2023-12-14T12:10:47;97342.56;;;10.37;71.72
84501;BME280;74725;44.210;17.906;2023-12-14T12:13:29;97347.53;;;10.29;71.87
84501;BME280;74725;44.210;17.906;2023-12-14T12:15:55;97353.19;;;10.22;71.95
84501;BME280;74725;44.210;17.906;2023-12-14T12:18:21;97359.78;;;10.12;72.11
84501;BME280;74725;44.210;17.906;2023-12-14T12:20:47;97370.81;;;10.21;71.66
84501;BME280;74725;44.210;17.906;2023-12-14T12:23:13;97375.44;;;10.11;70.13
84501;BME280;74725;44.210;17.906;2023-12-14T12:25:40;97371.59;;;10.09;69.78
84501;BME280;74725;44.210;17.906;2023-12-14T12:28:06;97361.88;;;10.08;69.90
84501;BME280;74725;44.210;17.906;2023-12-14T12:30:33;97373.91;;;9.97;68.78
84501;BME280;74725;44.210;17.906;2023-12-14T12:33:04;97353.56;;;9.98;68.57
84501;BME280;74725;44.210;17.906;2023-12-14T12:35:31;97368.34;;;10.01;69.96
84501;BME280;74725;44.210;17.906;2023-12-14T12:37:58;97368.66;;;9.90;69.43
84501;BME280;74725;44.210;17.906;2023-12-14T12:40:24;97369.53;;;9.87;69.30
84501;BME280;74725;44.210;17.906;2023-12-14T12:42:55;97365.06;;;9.93;70.44
84501;BME280;74725;44.210;17.906;2023-12-14T12:45:21;97365.41;;;9.95;69.55
84501;BME280;74725;44.210;17.906;2023-12-14T12:47:53;97362.09;;;9.75;67.61
84501;BME280;74725;44.210;17.906;2023-12-14T12:50:19;97361.78;;;9.86;66.70
84501;BME280;74725;44.210;17.906;2023-12-14T12:53:08;97378.28;;;9.95;65.48
84501;BME280;74725;44.210;17.906;2023-12-14T12:56:12;97369.00;;;9.92;64.88
84501;BME280;74725;44.210;17.906;2023-12-14T13:02:35;97378.41;;;10.04;66.18
84501;BME280;74725;44.210;17.906;2023-12-14T13:05:01;97381.34;;;10.10;65.19
84501;BME280;74725;44.210;17.906;2023-12-14T13:07:27;97373.69;;;10.04;65.33
84501;BME280;74725;44.210;17.906;2023-12-14T13:09:53;97384.06;;;10.10;65.86
84501;BME280;74725;44.210;17.906;2023-12-14T13:12:18;97395.22;;;10.02;65.73
84501;BME280;74725;44.210;17.906;2023-12-14T13:14:44;97390.09;;;10.04;65.84
84501;BME280;74725;44.210;17.906;2023-12-14T13:17:09;97389.88;;;10.12;65.23
84501;BME280;74725;44.210;17.906;2023-12-14T13:19:35;97401.50;;;10.03;65.57
84501;BME280;74725;44.210;17.906;2023-12-14T13:22:01;97414.94;;;9.85;66.20
84501;BME280;74725;44.210;17.906;2023-12-14T13:24:27;97405.41;;;9.89;67.01
84501;BME280;74725;44.210;17.906;2023-12-14T13:26:53;97405.53;;;9.98;66.42
84501;BME280;74725;44.210;17.906;2023-12-14T13:29:19;97413.63;;;9.89;66.50
84501;BME280;74725;44.210;17.906;2023-12-14T13:31:47;97432.13;;;9.85;67.43
84501;BME280;74725;44.210;17.906;2023-12-14T13:34:12;97439.56;;;9.85;66.92
84501;BME280;74725;44.210;17.906;2023-12-14T13:36:38;97443.81;;;9.86;66.31
84501;BME280;74725;44.210;17.906;2023-12-14T13:39:03;97454.31;;;9.87;65.46
84501;BME280;74725;44.210;17.906;2023-12-14T13:41:29;97442.94;;;9.89;65.67
84501;BME280;74725;44.210;17.906;2023-12-14T13:43:59;97447.66;;;9.88;65.61
84501;BME280;74725;44.210;17.906;2023-12-14T13:46:25;97461.94;;;9.79;66.18
84501;BME280;74725;44.210;17.906;2023-12-14T13:48:51;97466.66;;;9.79;66.21
84501;BME280;74725;44.210;17.906;2023-12-14T13:51:18;97467.41;;;9.79;66.23
84501;BME280;74725;44.210;17.906;2023-12-14T13:54:05;97473.44;;;9.74;66.16
84501;BME280;74725;44.210;17.906;2023-12-14T13:56:30;97481.50;;;9.65;67.06
84501;BME280;74725;44.210;17.906;2023-12-14T13:59:21;97498.13;;;9.71;66.91
84501;BME280;74725;44.210;17.906;2023-12-14T14:02:13;97493.34;;;9.75;66.80
84501;BME280;74725;44.210;17.906;2023-12-14T14:04:39;97493.03;;;9.73;66.48
84501;BME280;74725;44.210;17.906;2023-12-14T14:07:13;97502.19;;;9.79;65.69